This is the latest recevied weather packets stored in our database for station/object YO3LAW-13. If no packets are shown the sender has not sent any weather packets the latest 1 day(s).
| Time | Temp. | Humidity | Pressure | Rain* | Wind** | Luminosity | Snow |
|---|---|---|---|---|---|---|---|
| 1777989947 | 26.67° C | 34% | 1003.4 hPa | 0 mm | 0 m/s | - | - |
| 1777989347 | 26.67° C | 35% | 1003.5 hPa | 0 mm | 0.89 m/s, 325° | - | - |
| 1777988747 | 26.67° C | 35% | 1003.4 hPa | 0 mm | 0.89 m/s, 329° | - | - |
| 1777988147 | 26.67° C | 35% | 1003.3 hPa | 0 mm | 0 m/s | - | - |
| 1777987547 | 26.67° C | 36% | 1003.4 hPa | 0 mm | 0 m/s | - | - |
| 1777986947 | 26.67° C | 34% | 1003.6 hPa | 0 mm | 0 m/s | - | - |
| 1777986347 | 26.67° C | 35% | 1003.4 hPa | 0 mm | 0 m/s | - | - |
| 1777985747 | 26.67° C | 33% | 1003.7 hPa | 0 mm | 0 m/s | - | - |
| 1777985147 | 26.11° C | 34% | 1003.8 hPa | 0 mm | 0.45 m/s, 271° | - | - |
| 1777984547 | 26.11° C | 35% | 1004 hPa | 0 mm | 0 m/s | - | - |
| 1777983947 | 26.11° C | 34% | 1004.1 hPa | 0 mm | 0.45 m/s, 266° | - | - |
| 1777983347 | 26.67° C | 33% | 1004.1 hPa | 0 mm | 0 m/s | - | - |
| 1777982747 | 26.67° C | 34% | 1004 hPa | 0 mm | 1.34 m/s, 103° | - | - |
| 1777982147 | 26.11° C | 35% | 1004.2 hPa | 0 mm | 0.89 m/s, 215° | - | - |
| 1777981547 | 26.11° C | 35% | 1004.4 hPa | 0 mm | 0.89 m/s, 18° | - | - |
| 1777980947 | 26.11° C | 37% | 1004.2 hPa | 0 mm | 0 m/s | - | - |
| 1777980347 | 25.56° C | 38% | 1004.4 hPa | 0 mm | 0 m/s | - | - |
| 1777979747 | 25.56° C | 38% | 1004.7 hPa | 0 mm | 1.79 m/s, 189° | - | - |
| 1777979147 | 25° C | 38% | 1004.6 hPa | 0 mm | 0.45 m/s, 124° | - | - |
| 1777978547 | 25° C | 40% | 1004.6 hPa | 0 mm | 0 m/s | - | - |
| 1777977947 | 25.56° C | 38% | 1004.7 hPa | 0 mm | 0.89 m/s, 138° | - | - |
| 1777977347 | 25.56° C | 39% | 1004.9 hPa | 0 mm | 0 m/s | - | - |
| 1777976747 | 25° C | 39% | 1004.7 hPa | 0 mm | 0 m/s | - | - |
| 1777976147 | 25° C | 39% | 1004.9 hPa | 0 mm | 0.89 m/s, 116° | - | - |
| 1777975547 | 25° C | 41% | 1005 hPa | 0 mm | 0 m/s | - | - |
* Rain latest hour (hover to see other rain measurements)
** Current wind speed in m/s (hover to see current wind gust speed)